sensor_id;sensor_type;location;lat;lon;timestamp;pressure;altitude;pressure_sealevel;temperature
49557;BMP280;35462;45.048;7.666;2023-02-28T00:08:22;99345.09;;;8.93
49557;BMP280;35462;45.048;7.666;2023-02-28T00:23:38;99346.19;;;8.89
49557;BMP280;35462;45.048;7.666;2023-02-28T00:38:54;99335.66;;;8.99
49557;BMP280;35462;45.048;7.666;2023-02-28T00:54:09;99344.31;;;8.96
49557;BMP280;35462;45.048;7.666;2023-02-28T01:09:25;99342.38;;;8.86
49557;BMP280;35462;45.048;7.666;2023-02-28T01:24:41;99356.25;;;8.62
49557;BMP280;35462;45.048;7.666;2023-02-28T01:39:57;99349.41;;;8.51
49557;BMP280;35462;45.048;7.666;2023-02-28T01:55:15;99352.78;;;8.48
49557;BMP280;35462;45.048;7.666;2023-02-28T02:10:34;99343.72;;;8.49
49557;BMP280;35462;45.048;7.666;2023-02-28T02:25:58;99338.06;;;8.47
49557;BMP280;35462;45.048;7.666;2023-02-28T02:41:46;99348.56;;;8.40
49557;BMP280;35462;45.048;7.666;2023-02-28T02:57:10;99356.13;;;8.42
49557;BMP280;35462;45.048;7.666;2023-02-28T03:12:37;99344.03;;;8.37
49557;BMP280;35462;45.048;7.666;2023-02-28T03:28:11;99359.06;;;8.30
49557;BMP280;35462;45.048;7.666;2023-02-28T03:43:35;99367.69;;;8.23
49557;BMP280;35462;45.048;7.666;2023-02-28T03:58:57;99374.13;;;8.26
49557;BMP280;35462;45.048;7.666;2023-02-28T04:14:14;99384.59;;;8.15
49557;BMP280;35462;45.048;7.666;2023-02-28T04:29:31;99391.47;;;8.27
49557;BMP280;35462;45.048;7.666;2023-02-28T04:44:48;99402.34;;;8.22
49557;BMP280;35462;45.048;7.666;2023-02-28T05:00:05;99403.25;;;7.96
49557;BMP280;35462;45.048;7.666;2023-02-28T05:15:22;99419.41;;;7.88
49557;BMP280;35462;45.048;7.666;2023-02-28T05:30:38;99425.66;;;7.76
49557;BMP280;35462;45.048;7.666;2023-02-28T05:45:54;99423.59;;;7.52
49557;BMP280;35462;45.048;7.666;2023-02-28T06:01:33;99438.38;;;7.64
49557;BMP280;35462;45.048;7.666;2023-02-28T06:16:49;99439.63;;;7.77
49557;BMP280;35462;45.048;7.666;2023-02-28T06:32:05;99443.25;;;8.02
49557;BMP280;35462;45.048;7.666;2023-02-28T06:47:21;99455.75;;;8.12
49557;BMP280;35462;45.048;7.666;2023-02-28T07:02:37;99459.88;;;8.06
49557;BMP280;35462;45.048;7.666;2023-02-28T07:17:53;99479.56;;;8.19
49557;BMP280;35462;45.048;7.666;2023-02-28T07:33:09;99486.81;;;8.25
49557;BMP280;35462;45.048;7.666;2023-02-28T07:48:25;99497.03;;;8.34
49557;BMP280;35462;45.048;7.666;2023-02-28T08:03:41;99508.25;;;8.24
49557;BMP280;35462;45.048;7.666;2023-02-28T08:18:58;99523.81;;;8.36
49557;BMP280;35462;45.048;7.666;2023-02-28T08:34:15;99534.78;;;8.41
49557;BMP280;35462;45.048;7.666;2023-02-28T08:49:31;99544.75;;;8.15
49557;BMP280;35462;45.048;7.666;2023-02-28T09:04:47;99548.63;;;8.28
49557;BMP280;35462;45.048;7.666;2023-02-28T09:20:04;99572.53;;;8.45
49557;BMP280;35462;45.048;7.666;2023-02-28T09:35:21;99582.84;;;8.60
49557;BMP280;35462;45.048;7.666;2023-02-28T09:50:40;99586.22;;;8.57
49557;BMP280;35462;45.048;7.666;2023-02-28T10:21:34;99578.22;;;8.94
49557;BMP280;35462;45.048;7.666;2023-02-28T10:36:51;99580.63;;;9.16
49557;BMP280;35462;45.048;7.666;2023-02-28T10:52:09;99565.66;;;9.31
49557;BMP280;35462;45.048;7.666;2023-02-28T11:07:26;99552.13;;;9.50
49557;BMP280;35462;45.048;7.666;2023-02-28T11:22:44;99548.28;;;9.40
49557;BMP280;35462;45.048;7.666;2023-02-28T11:38:01;99521.97;;;9.58
49557;BMP280;35462;45.048;7.666;2023-02-28T12:24:26;99479.69;;;9.78
49557;BMP280;35462;45.048;7.666;2023-02-28T12:39:47;99472.13;;;9.73
49557;BMP280;35462;45.048;7.666;2023-02-28T12:55:13;99447.97;;;9.82
49557;BMP280;35462;45.048;7.666;2023-02-28T13:10:40;99436.63;;;9.78
49557;BMP280;35462;45.048;7.666;2023-02-28T13:25:57;99423.78;;;10.01
49557;BMP280;35462;45.048;7.666;2023-02-28T13:56:57;99408.28;;;10.10
49557;BMP280;35462;45.048;7.666;2023-02-28T14:28:21;99379.19;;;9.92
49557;BMP280;35462;45.048;7.666;2023-02-28T14:43:54;99364.84;;;9.72
49557;BMP280;35462;45.048;7.666;2023-02-28T14:59:28;99348.22;;;9.79
49557;BMP280;35462;45.048;7.666;2023-02-28T15:14:44;99344.84;;;9.71
49557;BMP280;35462;45.048;7.666;2023-02-28T15:30:06;99331.59;;;9.75
49557;BMP280;35462;45.048;7.666;2023-02-28T15:45:35;99324.78;;;9.67
49557;BMP280;35462;45.048;7.666;2023-02-28T16:16:31;99315.00;;;9.57
49557;BMP280;35462;45.048;7.666;2023-02-28T16:31:48;99316.88;;;9.60
49557;BMP280;35462;45.048;7.666;2023-02-28T16:47:04;99314.19;;;9.50
49557;BMP280;35462;45.048;7.666;2023-02-28T17:02:21;99308.94;;;9.39
49557;BMP280;35462;45.048;7.666;2023-02-28T17:17:37;99311.97;;;9.31
49557;BMP280;35462;45.048;7.666;2023-02-28T17:32:55;99304.38;;;9.22
49557;BMP280;35462;45.048;7.666;2023-02-28T17:48:11;99306.66;;;9.20
49557;BMP280;35462;45.048;7.666;2023-02-28T18:03:27;99288.13;;;9.13
49557;BMP280;35462;45.048;7.666;2023-02-28T18:18:47;99286.16;;;8.79
49557;BMP280;35462;45.048;7.666;2023-02-28T18:34:03;99270.31;;;8.86
49557;BMP280;35462;45.048;7.666;2023-02-28T18:49:19;99266.53;;;8.69
49557;BMP280;35462;45.048;7.666;2023-02-28T19:04:35;99258.56;;;8.62
49557;BMP280;35462;45.048;7.666;2023-02-28T19:19:51;99249.16;;;8.55
49557;BMP280;35462;45.048;7.666;2023-02-28T19:35:07;99254.78;;;8.46
49557;BMP280;35462;45.048;7.666;2023-02-28T19:50:23;99257.69;;;8.38
49557;BMP280;35462;45.048;7.666;2023-02-28T20:05:39;99255.06;;;8.31
49557;BMP280;35462;45.048;7.666;2023-02-28T20:20:55;99265.56;;;8.24
49557;BMP280;35462;45.048;7.666;2023-02-28T20:36:11;99270.06;;;8.20
49557;BMP280;35462;45.048;7.666;2023-02-28T20:51:29;99275.72;;;8.15
49557;BMP280;35462;45.048;7.666;2023-02-28T21:06:47;99292.56;;;8.03
49557;BMP280;35462;45.048;7.666;2023-02-28T21:22:07;99300.09;;;8.01
49557;BMP280;35462;45.048;7.666;2023-02-28T21:37:25;99309.84;;;7.94
49557;BMP280;35462;45.048;7.666;2023-02-28T21:52:45;99308.00;;;8.01
49557;BMP280;35462;45.048;7.666;2023-02-28T22:08:00;99291.91;;;8.13
49557;BMP280;35462;45.048;7.666;2023-02-28T22:23:16;99273.78;;;8.12
49557;BMP280;35462;45.048;7.666;2023-02-28T22:38:34;99279.06;;;8.08
49557;BMP280;35462;45.048;7.666;2023-02-28T22:54:00;99281.63;;;8.01
49557;BMP280;35462;45.048;7.666;2023-02-28T23:09:17;99271.81;;;7.98
49557;BMP280;35462;45.048;7.666;2023-02-28T23:24:38;99272.66;;;8.06
49557;BMP280;35462;45.048;7.666;2023-02-28T23:39:55;99264.78;;;8.16
49557;BMP280;35462;45.048;7.666;2023-02-28T23:55:18;99268.56;;;8.19
